sensor_id;sensor_type;location;lat;lon;timestamp;temperature;humidity
13600;DHT22;6871;51.34740610;4.31323160;2022-09-29T00:01:29;17.70;74.00
13600;DHT22;6871;51.34740610;4.31323160;2022-09-29T00:03:59;17.60;73.80
13600;DHT22;6871;51.34740610;4.31323160;2022-09-29T00:06:28;17.60;73.80
13600;DHT22;6871;51.34740610;4.31323160;2022-09-29T00:08:58;17.60;73.90
13600;DHT22;6871;51.34740610;4.31323160;2022-09-29T00:11:27;17.60;73.90
13600;DHT22;6871;51.34740610;4.31323160;2022-09-29T00:13:57;17.70;74.00
13600;DHT22;6871;51.34740610;4.31323160;2022-09-29T00:16:26;17.60;73.90
13600;DHT22;6871;51.34740610;4.31323160;2022-09-29T00:18:55;17.60;73.80
13600;DHT22;6871;51.34740610;4.31323160;2022-09-29T00:21:25;17.60;73.80
13600;DHT22;6871;51.34740610;4.31323160;2022-09-29T00:23:54;17.60;73.90
13600;DHT22;6871;51.34740610;4.31323160;2022-09-29T00:26:24;17.60;73.90
13600;DHT22;6871;51.34740610;4.31323160;2022-09-29T00:28:55;17.60;73.90
13600;DHT22;6871;51.34740610;4.31323160;2022-09-29T00:31:25;17.60;73.80
13600;DHT22;6871;51.34740610;4.31323160;2022-09-29T00:33:55;17.60;73.80
13600;DHT22;6871;51.34740610;4.31323160;2022-09-29T00:36:25;17.60;73.80
13600;DHT22;6871;51.34740610;4.31323160;2022-09-29T00:38:58;17.60;73.80
13600;DHT22;6871;51.34740610;4.31323160;2022-09-29T00:41:30;17.60;73.80
13600;DHT22;6871;51.34740610;4.31323160;2022-09-29T00:44:02;17.60;73.90
13600;DHT22;6871;51.34740610;4.31323160;2022-09-29T00:46:36;17.60;73.80
13600;DHT22;6871;51.34740610;4.31323160;2022-09-29T00:49:12;17.60;73.80
13600;DHT22;6871;51.34740610;4.31323160;2022-09-29T00:51:43;17.60;73.80
13600;DHT22;6871;51.34740610;4.31323160;2022-09-29T00:54:14;17.60;73.90
13600;DHT22;6871;51.34740610;4.31323160;2022-09-29T00:56:45;17.60;73.90
13600;DHT22;6871;51.34740610;4.31323160;2022-09-29T00:59:17;17.60;73.90
13600;DHT22;6871;51.34740610;4.31323160;2022-09-29T01:01:47;17.60;73.90
13600;DHT22;6871;51.34740610;4.31323160;2022-09-29T01:04:18;17.60;73.90
13600;DHT22;6871;51.34740610;4.31323160;2022-09-29T01:06:50;17.60;73.80
13600;DHT22;6871;51.34740610;4.31323160;2022-09-29T01:09:24;17.60;73.80
13600;DHT22;6871;51.34740610;4.31323160;2022-09-29T01:11:55;17.50;73.80
13600;DHT22;6871;51.34740610;4.31323160;2022-09-29T01:14:26;17.50;73.80
13600;DHT22;6871;51.34740610;4.31323160;2022-09-29T01:16:57;17.50;73.80
13600;DHT22;6871;51.34740610;4.31323160;2022-09-29T01:19:35;17.60;73.90
13600;DHT22;6871;51.34740610;4.31323160;2022-09-29T01:22:04;17.50;73.80
13600;DHT22;6871;51.34740610;4.31323160;2022-09-29T01:24:57;17.60;73.90
13600;DHT22;6871;51.34740610;4.31323160;2022-09-29T01:27:46;17.50;73.80
13600;DHT22;6871;51.34740610;4.31323160;2022-09-29T01:30:19;17.50;73.90
13600;DHT22;6871;51.34740610;4.31323160;2022-09-29T01:33:13;17.50;74.00
13600;DHT22;6871;51.34740610;4.31323160;2022-09-29T01:35:49;17.50;74.00
13600;DHT22;6871;51.34740610;4.31323160;2022-09-29T01:38:44;17.50;73.90
13600;DHT22;6871;51.34740610;4.31323160;2022-09-29T01:41:15;17.50;73.90
13600;DHT22;6871;51.34740610;4.31323160;2022-09-29T01:43:48;17.50;73.90
13600;DHT22;6871;51.34740610;4.31323160;2022-09-29T01:46:21;17.50;74.00
13600;DHT22;6871;51.34740610;4.31323160;2022-09-29T01:48:53;17.50;74.00
13600;DHT22;6871;51.34740610;4.31323160;2022-09-29T01:51:26;17.50;74.00
13600;DHT22;6871;51.34740610;4.31323160;2022-09-29T01:53:58;17.50;74.00
13600;DHT22;6871;51.34740610;4.31323160;2022-09-29T01:56:31;17.50;73.90
13600;DHT22;6871;51.34740610;4.31323160;2022-09-29T01:59:03;17.50;73.80
13600;DHT22;6871;51.34740610;4.31323160;2022-09-29T02:01:37;17.50;73.80
13600;DHT22;6871;51.34740610;4.31323160;2022-09-29T02:04:10;17.50;73.80
13600;DHT22;6871;51.34740610;4.31323160;2022-09-29T02:06:43;17.50;73.90
13600;DHT22;6871;51.34740610;4.31323160;2022-09-29T02:09:14;17.50;73.90
13600;DHT22;6871;51.34740610;4.31323160;2022-09-29T02:11:45;17.50;73.80
13600;DHT22;6871;51.34740610;4.31323160;2022-09-29T02:14:17;17.50;73.80
13600;DHT22;6871;51.34740610;4.31323160;2022-09-29T02:16:53;17.50;73.80
13600;DHT22;6871;51.34740610;4.31323160;2022-09-29T02:19:21;17.50;73.70
13600;DHT22;6871;51.34740610;4.31323160;2022-09-29T02:21:51;17.40;73.80
13600;DHT22;6871;51.34740610;4.31323160;2022-09-29T02:24:21;17.40;73.60
13600;DHT22;6871;51.34740610;4.31323160;2022-09-29T02:26:52;17.50;73.70
13600;DHT22;6871;51.34740610;4.31323160;2022-09-29T02:29:21;17.50;73.60
13600;DHT22;6871;51.34740610;4.31323160;2022-09-29T02:31:50;17.50;73.70
13600;DHT22;6871;51.34740610;4.31323160;2022-09-29T02:34:21;17.40;73.70
13600;DHT22;6871;51.34740610;4.31323160;2022-09-29T02:36:56;17.40;73.60
13600;DHT22;6871;51.34740610;4.31323160;2022-09-29T02:39:33;17.50;73.70
13600;DHT22;6871;51.34740610;4.31323160;2022-09-29T02:42:07;17.40;73.50
13600;DHT22;6871;51.34740610;4.31323160;2022-09-29T02:45:04;17.50;73.50
13600;DHT22;6871;51.34740610;4.31323160;2022-09-29T02:47:50;17.40;73.40
13600;DHT22;6871;51.34740610;4.31323160;2022-09-29T02:50:52;17.40;73.40
13600;DHT22;6871;51.34740610;4.31323160;2022-09-29T02:53:31;17.40;73.50
13600;DHT22;6871;51.34740610;4.31323160;2022-09-29T02:56:03;17.40;73.50
13600;DHT22;6871;51.34740610;4.31323160;2022-09-29T02:58:35;17.30;73.40
13600;DHT22;6871;51.34740610;4.31323160;2022-09-29T03:01:06;17.40;73.30
13600;DHT22;6871;51.34740610;4.31323160;2022-09-29T03:03:35;17.40;73.20
13600;DHT22;6871;51.34740610;4.31323160;2022-09-29T03:06:05;17.40;73.40
13600;DHT22;6871;51.34740610;4.31323160;2022-09-29T03:08:35;17.30;73.30
13600;DHT22;6871;51.34740610;4.31323160;2022-09-29T03:11:04;17.40;73.40
13600;DHT22;6871;51.34740610;4.31323160;2022-09-29T03:13:34;17.40;73.30
13600;DHT22;6871;51.34740610;4.31323160;2022-09-29T03:16:03;17.30;73.40
13600;DHT22;6871;51.34740610;4.31323160;2022-09-29T03:18:32;17.30;73.10
13600;DHT22;6871;51.34740610;4.31323160;2022-09-29T03:21:02;17.40;73.20
13600;DHT22;6871;51.34740610;4.31323160;2022-09-29T03:23:31;17.40;73.10
13600;DHT22;6871;51.34740610;4.31323160;2022-09-29T03:26:00;17.40;73.20
13600;DHT22;6871;51.34740610;4.31323160;2022-09-29T03:28:30;17.30;73.10
13600;DHT22;6871;51.34740610;4.31323160;2022-09-29T03:31:04;17.30;73.00
13600;DHT22;6871;51.34740610;4.31323160;2022-09-29T03:33:34;17.30;73.00
13600;DHT22;6871;51.34740610;4.31323160;2022-09-29T03:36:04;17.30;73.00
13600;DHT22;6871;51.34740610;4.31323160;2022-09-29T03:38:33;17.30;73.00
13600;DHT22;6871;51.34740610;4.31323160;2022-09-29T03:41:03;17.30;73.00
13600;DHT22;6871;51.34740610;4.31323160;2022-09-29T03:43:33;17.30;73.10
13600;DHT22;6871;51.34740610;4.31323160;2022-09-29T03:46:02;17.30;72.90
13600;DHT22;6871;51.34740610;4.31323160;2022-09-29T03:48:31;17.30;73.70
13600;DHT22;6871;51.34740610;4.31323160;2022-09-29T03:51:01;17.30;72.70
13600;DHT22;6871;51.34740610;4.31323160;2022-09-29T03:53:33;17.30;72.70
13600;DHT22;6871;51.34740610;4.31323160;2022-09-29T03:56:03;17.30;72.90
13600;DHT22;6871;51.34740610;4.31323160;2022-09-29T03:58:34;17.30;72.90
13600;DHT22;6871;51.34740610;4.31323160;2022-09-29T04:01:05;17.30;72.80
13600;DHT22;6871;51.34740610;4.31323160;2022-09-29T04:03:34;17.30;72.80
13600;DHT22;6871;51.34740610;4.31323160;2022-09-29T04:06:04;17.30;72.70
13600;DHT22;6871;51.34740610;4.31323160;2022-09-29T04:08:36;17.30;72.80
13600;DHT22;6871;51.34740610;4.31323160;2022-09-29T04:11:06;17.30;72.80
13600;DHT22;6871;51.34740610;4.31323160;2022-09-29T04:13:35;17.30;72.80
13600;DHT22;6871;51.34740610;4.31323160;2022-09-29T04:16:05;17.30;72.80
13600;DHT22;6871;51.34740610;4.31323160;2022-09-29T04:18:36;17.30;72.70
13600;DHT22;6871;51.34740610;4.31323160;2022-09-29T04:21:07;17.30;72.40
13600;DHT22;6871;51.34740610;4.31323160;2022-09-29T04:23:36;17.30;72.30
13600;DHT22;6871;51.34740610;4.31323160;2022-09-29T04:26:06;17.20;72.50
13600;DHT22;6871;51.34740610;4.31323160;2022-09-29T04:28:36;17.30;72.50
13600;DHT22;6871;51.34740610;4.31323160;2022-09-29T04:31:05;17.20;72.50
13600;DHT22;6871;51.34740610;4.31323160;2022-09-29T04:33:35;17.30;72.50
13600;DHT22;6871;51.34740610;4.31323160;2022-09-29T04:36:06;17.20;72.50
13600;DHT22;6871;51.34740610;4.31323160;2022-09-29T04:38:35;17.20;72.30
13600;DHT22;6871;51.34740610;4.31323160;2022-09-29T04:41:06;17.20;72.30
13600;DHT22;6871;51.34740610;4.31323160;2022-09-29T04:43:35;17.30;72.30
13600;DHT22;6871;51.34740610;4.31323160;2022-09-29T04:46:06;17.30;72.50
13600;DHT22;6871;51.34740610;4.31323160;2022-09-29T04:48:36;17.30;72.30
13600;DHT22;6871;51.34740610;4.31323160;2022-09-29T04:51:06;17.20;73.10
13600;DHT22;6871;51.34740610;4.31323160;2022-09-29T04:53:37;17.20;72.10
13600;DHT22;6871;51.34740610;4.31323160;2022-09-29T04:56:07;17.30;72.20
13600;DHT22;6871;51.34740610;4.31323160;2022-09-29T04:58:37;17.20;72.20
13600;DHT22;6871;51.34740610;4.31323160;2022-09-29T05:01:08;17.20;72.20
13600;DHT22;6871;51.34740610;4.31323160;2022-09-29T05:03:37;17.20;72.20
13600;DHT22;6871;51.34740610;4.31323160;2022-09-29T05:06:07;17.20;72.10
13600;DHT22;6871;51.34740610;4.31323160;2022-09-29T05:08:37;17.20;72.20
13600;DHT22;6871;51.34740610;4.31323160;2022-09-29T05:11:07;17.20;72.20
13600;DHT22;6871;51.34740610;4.31323160;2022-09-29T05:13:37;17.20;72.10
13600;DHT22;6871;51.34740610;4.31323160;2022-09-29T05:16:07;17.20;72.10
13600;DHT22;6871;51.34740610;4.31323160;2022-09-29T05:18:36;17.20;72.30
13600;DHT22;6871;51.34740610;4.31323160;2022-09-29T05:21:07;17.20;71.90
13600;DHT22;6871;51.34740610;4.31323160;2022-09-29T05:23:37;17.20;72.00
13600;DHT22;6871;51.34740610;4.31323160;2022-09-29T05:26:07;17.20;72.10
13600;DHT22;6871;51.34740610;4.31323160;2022-09-29T05:28:38;17.20;72.00
13600;DHT22;6871;51.34740610;4.31323160;2022-09-29T05:31:09;17.20;72.00
13600;DHT22;6871;51.34740610;4.31323160;2022-09-29T05:33:38;17.20;72.10
13600;DHT22;6871;51.34740610;4.31323160;2022-09-29T05:36:09;17.10;72.00
13600;DHT22;6871;51.34740610;4.31323160;2022-09-29T05:38:39;17.10;72.10
13600;DHT22;6871;51.34740610;4.31323160;2022-09-29T05:41:10;17.10;72.70
13600;DHT22;6871;51.34740610;4.31323160;2022-09-29T05:43:40;17.20;72.00
13600;DHT22;6871;51.34740610;4.31323160;2022-09-29T05:46:10;17.10;72.00
13600;DHT22;6871;51.34740610;4.31323160;2022-09-29T05:48:39;17.20;72.10
13600;DHT22;6871;51.34740610;4.31323160;2022-09-29T05:51:12;17.10;71.90
13600;DHT22;6871;51.34740610;4.31323160;2022-09-29T05:53:41;17.10;71.90
13600;DHT22;6871;51.34740610;4.31323160;2022-09-29T05:56:12;17.10;71.70
13600;DHT22;6871;51.34740610;4.31323160;2022-09-29T05:58:43;17.10;71.60
13600;DHT22;6871;51.34740610;4.31323160;2022-09-29T06:01:14;17.10;71.80
13600;DHT22;6871;51.34740610;4.31323160;2022-09-29T06:03:44;17.10;71.80
13600;DHT22;6871;51.34740610;4.31323160;2022-09-29T06:06:14;17.10;71.70
13600;DHT22;6871;51.34740610;4.31323160;2022-09-29T06:08:44;17.10;71.60
13600;DHT22;6871;51.34740610;4.31323160;2022-09-29T06:11:15;17.10;71.70
13600;DHT22;6871;51.34740610;4.31323160;2022-09-29T06:13:47;17.10;71.80
13600;DHT22;6871;51.34740610;4.31323160;2022-09-29T06:16:18;17.10;71.70
13600;DHT22;6871;51.34740610;4.31323160;2022-09-29T06:18:48;17.10;71.60
13600;DHT22;6871;51.34740610;4.31323160;2022-09-29T06:21:19;17.10;71.60
13600;DHT22;6871;51.34740610;4.31323160;2022-09-29T06:23:52;17.10;71.60
13600;DHT22;6871;51.34740610;4.31323160;2022-09-29T06:26:23;17.10;71.60
13600;DHT22;6871;51.34740610;4.31323160;2022-09-29T06:28:53;17.10;71.70
13600;DHT22;6871;51.34740610;4.31323160;2022-09-29T06:31:24;17.10;71.60
13600;DHT22;6871;51.34740610;4.31323160;2022-09-29T06:33:56;17.00;71.50
13600;DHT22;6871;51.34740610;4.31323160;2022-09-29T06:36:28;17.00;72.00
13600;DHT22;6871;51.34740610;4.31323160;2022-09-29T06:39:26;17.00;71.70
13600;DHT22;6871;51.34740610;4.31323160;2022-09-29T06:41:56;17.00;69.20
13600;DHT22;6871;51.34740610;4.31323160;2022-09-29T06:44:26;17.00;67.80
13600;DHT22;6871;51.34740610;4.31323160;2022-09-29T06:46:57;17.00;67.00
13600;DHT22;6871;51.34740610;4.31323160;2022-09-29T06:49:26;17.00;67.00
13600;DHT22;6871;51.34740610;4.31323160;2022-09-29T06:51:56;17.00;67.00
13600;DHT22;6871;51.34740610;4.31323160;2022-09-29T06:54:25;16.90;66.90
13600;DHT22;6871;51.34740610;4.31323160;2022-09-29T06:56:54;16.90;67.00
13600;DHT22;6871;51.34740610;4.31323160;2022-09-29T06:59:23;16.90;67.10
13600;DHT22;6871;51.34740610;4.31323160;2022-09-29T07:01:53;16.90;67.30
13600;DHT22;6871;51.34740610;4.31323160;2022-09-29T07:04:22;16.90;67.50
13600;DHT22;6871;51.34740610;4.31323160;2022-09-29T07:06:51;16.90;67.70
13600;DHT22;6871;51.34740610;4.31323160;2022-09-29T07:09:21;16.80;67.90
13600;DHT22;6871;51.34740610;4.31323160;2022-09-29T07:11:51;16.90;68.30
13600;DHT22;6871;51.34740610;4.31323160;2022-09-29T07:14:22;16.80;68.60
13600;DHT22;6871;51.34740610;4.31323160;2022-09-29T07:16:52;16.80;69.10
13600;DHT22;6871;51.34740610;4.31323160;2022-09-29T07:19:22;16.90;69.40
13600;DHT22;6871;51.34740610;4.31323160;2022-09-29T07:21:52;16.90;69.80
13600;DHT22;6871;51.34740610;4.31323160;2022-09-29T07:24:21;16.90;70.10
13600;DHT22;6871;51.34740610;4.31323160;2022-09-29T07:26:51;16.90;70.40
13600;DHT22;6871;51.34740610;4.31323160;2022-09-29T07:29:21;16.90;70.70
13600;DHT22;6871;51.34740610;4.31323160;2022-09-29T07:31:50;16.90;71.10
13600;DHT22;6871;51.34740610;4.31323160;2022-09-29T07:34:21;16.90;71.30
13600;DHT22;6871;51.34740610;4.31323160;2022-09-29T07:36:50;16.90;71.30
13600;DHT22;6871;51.34740610;4.31323160;2022-09-29T07:39:20;16.90;71.50
13600;DHT22;6871;51.34740610;4.31323160;2022-09-29T07:41:50;17.00;71.70
13600;DHT22;6871;51.34740610;4.31323160;2022-09-29T07:44:19;17.00;71.90
13600;DHT22;6871;51.34740610;4.31323160;2022-09-29T07:46:49;17.00;72.00
13600;DHT22;6871;51.34740610;4.31323160;2022-09-29T07:49:18;17.00;72.00
13600;DHT22;6871;51.34740610;4.31323160;2022-09-29T07:51:48;17.00;72.40
13600;DHT22;6871;51.34740610;4.31323160;2022-09-29T07:54:18;17.00;72.40
13600;DHT22;6871;51.34740610;4.31323160;2022-09-29T07:56:47;17.00;72.30
13600;DHT22;6871;51.34740610;4.31323160;2022-09-29T07:59:16;17.10;72.20
13600;DHT22;6871;51.34740610;4.31323160;2022-09-29T08:01:46;17.10;72.20
13600;DHT22;6871;51.34740610;4.31323160;2022-09-29T08:04:16;17.20;73.10
13600;DHT22;6871;51.34740610;4.31323160;2022-09-29T08:06:45;17.10;72.00
13600;DHT22;6871;51.34740610;4.31323160;2022-09-29T08:09:14;17.10;71.90
13600;DHT22;6871;51.34740610;4.31323160;2022-09-29T08:11:44;17.20;72.00
13600;DHT22;6871;51.34740610;4.31323160;2022-09-29T08:14:13;17.20;72.20
13600;DHT22;6871;51.34740610;4.31323160;2022-09-29T08:16:42;17.20;72.10
13600;DHT22;6871;51.34740610;4.31323160;2022-09-29T08:19:11;17.20;71.90
13600;DHT22;6871;51.34740610;4.31323160;2022-09-29T08:21:40;17.30;71.90
13600;DHT22;6871;51.34740610;4.31323160;2022-09-29T08:24:12;17.30;72.00
13600;DHT22;6871;51.34740610;4.31323160;2022-09-29T08:26:41;17.30;72.90
13600;DHT22;6871;51.34740610;4.31323160;2022-09-29T08:29:11;17.30;72.10
13600;DHT22;6871;51.34740610;4.31323160;2022-09-29T08:31:40;17.30;72.00
13600;DHT22;6871;51.34740610;4.31323160;2022-09-29T08:34:10;17.40;72.10
13600;DHT22;6871;51.34740610;4.31323160;2022-09-29T08:36:41;17.40;72.20
13600;DHT22;6871;51.34740610;4.31323160;2022-09-29T08:39:11;17.40;72.40
13600;DHT22;6871;51.34740610;4.31323160;2022-09-29T08:41:52;17.50;72.60
13600;DHT22;6871;51.34740610;4.31323160;2022-09-29T08:44:27;17.50;72.50
13600;DHT22;6871;51.34740610;4.31323160;2022-09-29T08:46:59;17.50;72.50
13600;DHT22;6871;51.34740610;4.31323160;2022-09-29T08:49:32;17.60;72.50
13600;DHT22;6871;51.34740610;4.31323160;2022-09-29T08:52:08;17.60;72.60
13600;DHT22;6871;51.34740610;4.31323160;2022-09-29T08:54:39;17.60;72.60
13600;DHT22;6871;51.34740610;4.31323160;2022-09-29T08:57:13;17.60;72.60
13600;DHT22;6871;51.34740610;4.31323160;2022-09-29T08:59:48;17.60;72.50
13600;DHT22;6871;51.34740610;4.31323160;2022-09-29T09:05:26;17.60;73.50
13600;DHT22;6871;51.34740610;4.31323160;2022-09-29T09:08:00;17.70;72.90
13600;DHT22;6871;51.34740610;4.31323160;2022-09-29T09:10:36;17.70;72.50
13600;DHT22;6871;51.34740610;4.31323160;2022-09-29T09:13:16;17.70;72.90
13600;DHT22;6871;51.34740610;4.31323160;2022-09-29T09:15:53;17.80;73.70
13600;DHT22;6871;51.34740610;4.31323160;2022-09-29T09:18:54;17.80;73.50
13600;DHT22;6871;51.34740610;4.31323160;2022-09-29T09:21:29;17.90;73.00
13600;DHT22;6871;51.34740610;4.31323160;2022-09-29T09:24:02;17.90;72.70
13600;DHT22;6871;51.34740610;4.31323160;2022-09-29T09:26:36;18.00;72.60
13600;DHT22;6871;51.34740610;4.31323160;2022-09-29T09:29:08;17.90;72.90
13600;DHT22;6871;51.34740610;4.31323160;2022-09-29T09:31:41;18.00;72.70
13600;DHT22;6871;51.34740610;4.31323160;2022-09-29T09:34:15;18.00;72.40
13600;DHT22;6871;51.34740610;4.31323160;2022-09-29T09:36:48;18.00;72.20
13600;DHT22;6871;51.34740610;4.31323160;2022-09-29T09:39:20;18.00;72.20
13600;DHT22;6871;51.34740610;4.31323160;2022-09-29T09:41:51;18.10;72.20
13600;DHT22;6871;51.34740610;4.31323160;2022-09-29T09:47:04;18.10;71.90
13600;DHT22;6871;51.34740610;4.31323160;2022-09-29T09:49:36;18.20;71.90
13600;DHT22;6871;51.34740610;4.31323160;2022-09-29T09:52:11;18.20;71.90
13600;DHT22;6871;51.34740610;4.31323160;2022-09-29T09:54:43;18.20;71.80
13600;DHT22;6871;51.34740610;4.31323160;2022-09-29T09:57:44;18.30;71.90
13600;DHT22;6871;51.34740610;4.31323160;2022-09-29T10:00:16;18.30;72.50
13600;DHT22;6871;51.34740610;4.31323160;2022-09-29T11:30:41;18.90;70.00
